createdAt,value
2018-05-31T00:00:05.160Z,19.70
2018-05-31T00:01:04.793Z,19.70
2018-05-31T00:02:04.970Z,19.70
2018-05-31T00:03:04.919Z,19.60
2018-05-31T00:04:05.716Z,19.60
2018-05-31T00:05:04.731Z,19.60
2018-05-31T00:06:05.322Z,19.60
2018-05-31T00:07:05.349Z,19.60
2018-05-31T00:08:05.620Z,19.60
2018-05-31T00:09:04.773Z,19.60
2018-05-31T00:10:05.565Z,19.60
2018-05-31T00:11:05.207Z,19.60
2018-05-31T00:12:05.321Z,19.60
2018-05-31T00:13:04.663Z,19.60
2018-05-31T00:14:05.446Z,19.50
2018-05-31T00:15:05.687Z,19.50
2018-05-31T00:16:04.816Z,19.50
2018-05-31T00:17:04.708Z,19.50
2018-05-31T00:18:04.764Z,19.50
2018-05-31T00:19:05.508Z,19.50
2018-05-31T00:20:05.061Z,19.50
2018-05-31T00:21:05.011Z,19.40
2018-05-31T00:22:05.119Z,19.40
2018-05-31T00:23:05.161Z,19.40
2018-05-31T00:24:04.860Z,19.40
2018-05-31T00:25:05.135Z,19.40
2018-05-31T00:26:05.200Z,19.40
2018-05-31T00:27:05.131Z,19.40
2018-05-31T00:28:05.062Z,19.40
2018-05-31T00:29:05.275Z,19.40
2018-05-31T00:30:04.927Z,19.40
2018-05-31T00:31:05.648Z,19.40
2018-05-31T00:32:05.437Z,19.40
2018-05-31T00:33:05.377Z,19.40
2018-05-31T00:34:05.202Z,19.40
2018-05-31T00:35:05.754Z,19.40
2018-05-31T00:36:05.430Z,19.30
2018-05-31T00:37:05.830Z,19.30
2018-05-31T00:38:05.318Z,19.30
2018-05-31T00:39:05.191Z,19.30
2018-05-31T00:40:05.162Z,19.30
2018-05-31T00:41:05.294Z,19.30
2018-05-31T00:42:05.381Z,19.30
2018-05-31T00:43:05.511Z,19.30
2018-05-31T00:44:05.812Z,19.20
2018-05-31T00:45:05.483Z,19.20
2018-05-31T00:46:05.293Z,19.20
2018-05-31T00:47:05.029Z,19.20
2018-05-31T00:48:05.598Z,19.20
2018-05-31T00:49:05.300Z,19.20
2018-05-31T00:50:05.101Z,19.20
2018-05-31T00:51:04.875Z,19.20
2018-05-31T00:52:05.625Z,19.20
2018-05-31T00:53:05.512Z,19.20
2018-05-31T00:54:05.689Z,19.20
2018-05-31T00:55:05.712Z,19.20
2018-05-31T00:56:05.385Z,19.20
2018-05-31T00:57:04.974Z,19.20
2018-05-31T00:58:04.672Z,19.20
2018-05-31T00:59:04.933Z,19.20
2018-05-31T01:00:05.285Z,19.10
2018-05-31T01:01:04.949Z,19.20
2018-05-31T01:02:05.538Z,19.20
2018-05-31T01:03:05.354Z,19.10
2018-05-31T01:04:05.458Z,19.20
2018-05-31T01:05:04.794Z,19.10
2018-05-31T01:06:04.739Z,19.20
2018-05-31T01:07:05.185Z,19.10
2018-05-31T01:08:05.223Z,19.10
2018-05-31T01:09:05.355Z,19.10
2018-05-31T01:10:05.043Z,19.10
2018-05-31T01:11:05.088Z,19.10
2018-05-31T01:12:04.960Z,19.10
2018-05-31T01:13:05.549Z,19.10
2018-05-31T01:14:05.544Z,19.10
2018-05-31T01:15:04.963Z,19.00
2018-05-31T01:16:05.635Z,19.00
2018-05-31T01:17:05.372Z,19.00
2018-05-31T01:18:04.700Z,19.00
2018-05-31T01:19:05.430Z,19.00
2018-05-31T01:20:04.837Z,19.00
2018-05-31T01:21:04.944Z,19.00
2018-05-31T01:22:05.557Z,19.00
2018-05-31T01:23:05.537Z,19.00
2018-05-31T01:24:04.943Z,19.00
2018-05-31T01:25:05.544Z,19.00
2018-05-31T01:26:05.469Z,19.00
2018-05-31T01:27:04.680Z,19.00
2018-05-31T01:28:05.299Z,19.00
2018-05-31T01:29:05.530Z,19.00
2018-05-31T01:30:05.493Z,19.00
2018-05-31T01:31:05.671Z,19.00
2018-05-31T01:32:05.172Z,19.00
2018-05-31T01:33:04.738Z,19.00
2018-05-31T01:34:05.285Z,19.00
2018-05-31T01:35:05.203Z,19.00
2018-05-31T01:36:05.210Z,18.90
2018-05-31T01:37:05.240Z,18.90
2018-05-31T01:38:04.908Z,18.90
2018-05-31T01:39:05.477Z,18.90
2018-05-31T01:40:04.621Z,18.90
2018-05-31T01:41:04.826Z,18.90
2018-05-31T01:42:04.846Z,18.90
2018-05-31T01:43:05.516Z,18.90
2018-05-31T01:44:05.640Z,18.90
2018-05-31T01:45:05.325Z,18.90
2018-05-31T01:46:05.062Z,18.90
2018-05-31T01:47:04.929Z,18.80
2018-05-31T01:48:05.004Z,18.80
2018-05-31T01:49:05.332Z,18.80
2018-05-31T01:50:05.220Z,18.80
2018-05-31T01:51:05.026Z,18.80
2018-05-31T01:52:04.942Z,18.80
2018-05-31T01:53:05.583Z,18.70
2018-05-31T01:54:05.704Z,18.70
2018-05-31T01:55:05.253Z,18.70
2018-05-31T01:56:05.466Z,18.70
2018-05-31T01:57:05.569Z,18.70
2018-05-31T01:58:04.772Z,18.60
2018-05-31T01:59:04.908Z,18.60
2018-05-31T02:00:04.980Z,18.60
2018-05-31T02:01:05.146Z,18.60
2018-05-31T02:02:05.343Z,18.60
2018-05-31T02:03:05.069Z,18.60
2018-05-31T02:04:05.042Z,18.50
2018-05-31T02:05:04.983Z,18.50
2018-05-31T02:06:05.112Z,18.50
2018-05-31T02:07:05.043Z,18.50
2018-05-31T02:08:05.336Z,18.50
2018-05-31T02:09:05.344Z,18.50
2018-05-31T02:10:10.994Z,18.50
2018-05-31T02:11:05.164Z,18.50
2018-05-31T02:12:05.146Z,18.50
2018-05-31T02:13:05.120Z,18.50
2018-05-31T02:14:05.213Z,18.50
2018-05-31T02:15:05.557Z,18.50
2018-05-31T02:16:05.045Z,18.50
2018-05-31T02:17:04.996Z,18.50
2018-05-31T02:18:05.575Z,18.50
2018-05-31T02:19:05.611Z,18.50
2018-05-31T02:20:05.523Z,18.40
2018-05-31T02:21:05.510Z,18.40
2018-05-31T02:22:05.160Z,18.40
2018-05-31T02:23:04.925Z,18.40
2018-05-31T02:24:04.855Z,18.30
2018-05-31T02:25:05.670Z,18.30
2018-05-31T02:26:05.691Z,18.30
2018-05-31T02:27:09.949Z,18.30
2018-05-31T02:28:04.987Z,18.30
2018-05-31T02:29:04.767Z,18.30
2018-05-31T02:30:05.446Z,18.30
2018-05-31T02:31:04.781Z,18.30
2018-05-31T02:32:04.735Z,18.30
2018-05-31T02:33:05.606Z,18.30
2018-05-31T02:34:05.669Z,18.30
2018-05-31T02:35:04.747Z,18.30
2018-05-31T02:36:05.457Z,18.30
2018-05-31T02:37:05.390Z,18.30
2018-05-31T02:38:05.123Z,18.30
2018-05-31T02:39:05.459Z,18.30
2018-05-31T02:40:05.448Z,18.30
2018-05-31T02:41:04.897Z,18.30
2018-05-31T02:42:04.960Z,18.30
2018-05-31T02:43:04.708Z,18.30
2018-05-31T02:44:05.709Z,18.30
2018-05-31T02:45:04.800Z,18.30
2018-05-31T02:46:05.688Z,18.30
2018-05-31T02:47:05.051Z,18.30
2018-05-31T02:48:10.484Z,18.30
2018-05-31T02:49:05.411Z,18.20
2018-05-31T02:50:05.176Z,18.20
2018-05-31T02:51:04.735Z,18.20
2018-05-31T02:52:04.827Z,18.20
2018-05-31T02:53:05.470Z,18.20
2018-05-31T02:54:05.443Z,18.20
2018-05-31T02:55:05.225Z,18.20
2018-05-31T02:56:05.095Z,18.20
2018-05-31T02:57:04.820Z,18.20
2018-05-31T02:58:05.414Z,18.20
2018-05-31T02:59:04.953Z,18.20
2018-05-31T03:00:05.129Z,18.20
2018-05-31T03:01:04.918Z,18.20
2018-05-31T03:02:04.884Z,18.20
2018-05-31T03:03:05.463Z,18.20
2018-05-31T03:04:05.544Z,18.20
2018-05-31T03:05:05.632Z,18.20
2018-05-31T03:06:05.399Z,18.20
2018-05-31T03:07:05.151Z,18.20
2018-05-31T03:08:05.191Z,18.20
2018-05-31T03:09:04.734Z,18.20
2018-05-31T03:10:05.578Z,18.20
2018-05-31T03:11:05.297Z,18.20
2018-05-31T03:12:04.974Z,18.20
2018-05-31T03:13:05.243Z,18.20
2018-05-31T03:14:05.313Z,18.20
2018-05-31T03:15:05.044Z,18.10
2018-05-31T03:16:05.203Z,18.10
2018-05-31T03:17:04.954Z,18.10
2018-05-31T03:18:05.463Z,18.10
2018-05-31T03:19:04.695Z,18.10
2018-05-31T03:20:05.477Z,18.10
2018-05-31T03:21:05.122Z,18.10
2018-05-31T03:22:05.087Z,18.10
2018-05-31T03:23:04.763Z,18.10
2018-05-31T03:24:05.428Z,18.10
2018-05-31T03:25:05.324Z,18.10
2018-05-31T03:26:05.034Z,18.10
2018-05-31T03:27:04.899Z,18.10
2018-05-31T03:28:05.095Z,18.10
2018-05-31T03:29:04.869Z,18.10
2018-05-31T03:30:05.189Z,18.10
2018-05-31T03:31:05.244Z,18.10
2018-05-31T03:32:05.694Z,18.10
2018-05-31T03:33:05.197Z,18.10
2018-05-31T03:34:05.418Z,18.10
2018-05-31T03:35:05.225Z,18.20
2018-05-31T03:36:05.153Z,18.20
2018-05-31T03:37:05.488Z,18.20
2018-05-31T03:38:04.843Z,18.20
2018-05-31T03:39:05.007Z,18.20
2018-05-31T03:40:05.535Z,18.20
2018-05-31T03:41:05.392Z,18.20
2018-05-31T03:42:04.745Z,18.20
2018-05-31T03:43:05.517Z,18.20
2018-05-31T03:44:05.462Z,18.20
2018-05-31T03:45:05.455Z,18.20
2018-05-31T03:46:05.348Z,18.20
2018-05-31T03:47:05.149Z,18.30
2018-05-31T03:48:05.312Z,18.30
2018-05-31T03:49:05.521Z,18.30
2018-05-31T03:50:05.567Z,18.30
2018-05-31T03:51:05.166Z,18.30
2018-05-31T03:52:05.629Z,18.30
2018-05-31T03:53:04.888Z,18.40
2018-05-31T03:54:05.344Z,18.40
2018-05-31T03:55:05.048Z,18.50
2018-05-31T03:56:05.456Z,18.60
2018-05-31T03:57:05.556Z,18.60
2018-05-31T03:58:04.670Z,18.70
2018-05-31T03:59:05.580Z,18.70
2018-05-31T04:00:04.793Z,18.80
2018-05-31T04:01:05.528Z,18.80
2018-05-31T04:02:05.320Z,18.80
2018-05-31T04:03:04.980Z,18.80
2018-05-31T04:04:05.260Z,18.80
2018-05-31T04:05:05.484Z,18.80
2018-05-31T04:06:05.193Z,18.80
2018-05-31T04:07:05.741Z,18.80
2018-05-31T04:08:04.779Z,18.80
2018-05-31T04:09:05.409Z,18.80
2018-05-31T04:10:05.645Z,18.70
2018-05-31T04:11:05.425Z,18.80
2018-05-31T04:12:05.326Z,18.80
2018-05-31T04:13:05.464Z,18.80
2018-05-31T04:14:04.696Z,18.80
2018-05-31T04:15:04.746Z,18.80
2018-05-31T04:16:05.536Z,18.80
2018-05-31T04:17:05.299Z,18.80
2018-05-31T04:18:05.407Z,18.70
2018-05-31T04:19:05.317Z,18.70
2018-05-31T04:20:05.522Z,18.70
2018-05-31T04:21:05.127Z,18.70
2018-05-31T04:22:05.283Z,18.70
2018-05-31T04:23:05.401Z,18.70
2018-05-31T04:24:05.049Z,18.70
2018-05-31T04:25:06.360Z,18.70
2018-05-31T04:26:04.896Z,18.70
2018-05-31T04:27:05.132Z,18.80
2018-05-31T04:28:05.366Z,18.80
2018-05-31T04:29:05.353Z,18.90
2018-05-31T04:30:04.894Z,18.90
2018-05-31T04:31:04.733Z,19.00
2018-05-31T04:32:05.410Z,19.10
2018-05-31T04:33:05.410Z,19.20
2018-05-31T04:34:05.196Z,19.30
2018-05-31T04:35:04.706Z,19.50
2018-05-31T04:36:05.520Z,19.60
2018-05-31T04:37:05.572Z,19.80
2018-05-31T04:38:04.972Z,20.00
2018-05-31T04:39:04.904Z,20.10
2018-05-31T04:40:05.527Z,20.30
2018-05-31T04:41:10.514Z,20.50
2018-05-31T04:42:05.472Z,20.70
2018-05-31T04:43:05.414Z,20.80
2018-05-31T04:44:04.986Z,21.00
2018-05-31T04:45:05.171Z,21.10
2018-05-31T04:46:04.837Z,21.30
2018-05-31T04:47:04.728Z,21.40
2018-05-31T04:48:05.467Z,21.50
2018-05-31T04:49:05.562Z,21.60
2018-05-31T04:50:05.511Z,21.80
2018-05-31T04:51:05.442Z,21.90
2018-05-31T04:52:05.091Z,22.00
2018-05-31T04:53:05.521Z,22.20
2018-05-31T04:54:05.080Z,22.30
2018-05-31T04:55:05.187Z,22.40
2018-05-31T04:56:05.349Z,22.60
2018-05-31T04:57:04.819Z,22.70
2018-05-31T04:58:05.332Z,22.80
2018-05-31T04:59:05.106Z,23.00
2018-05-31T05:00:05.191Z,23.10
2018-05-31T05:01:05.578Z,23.20
2018-05-31T05:02:05.893Z,23.30
2018-05-31T05:03:05.634Z,23.40
2018-05-31T05:04:05.085Z,23.50
2018-05-31T05:05:04.885Z,23.70
2018-05-31T05:06:05.016Z,23.80
2018-05-31T05:07:05.683Z,23.90
2018-05-31T05:08:05.758Z,24.00
2018-05-31T05:09:05.395Z,24.10
2018-05-31T05:10:05.122Z,24.20
2018-05-31T05:11:04.996Z,24.30
2018-05-31T05:12:04.919Z,24.30
2018-05-31T05:13:04.810Z,24.40
2018-05-31T05:14:04.841Z,24.50
2018-05-31T05:15:05.594Z,24.60
2018-05-31T05:16:05.240Z,24.70
2018-05-31T05:17:04.945Z,24.80
2018-05-31T05:18:05.079Z,24.80
2018-05-31T05:19:04.717Z,24.90
2018-05-31T05:20:04.663Z,25.00
2018-05-31T05:21:06.406Z,25.00
2018-05-31T05:22:05.405Z,25.10
2018-05-31T05:23:04.867Z,25.20
2018-05-31T05:24:05.362Z,25.20
2018-05-31T05:25:05.336Z,25.30
2018-05-31T05:26:05.306Z,25.30
2018-05-31T05:27:05.201Z,25.40
2018-05-31T05:28:05.394Z,25.40
2018-05-31T05:29:05.148Z,25.50
2018-05-31T05:30:05.228Z,25.50
2018-05-31T05:31:05.188Z,25.50
2018-05-31T05:32:04.805Z,25.60
2018-05-31T05:33:05.784Z,25.70
2018-05-31T05:34:04.827Z,25.70
2018-05-31T05:35:05.030Z,25.80
2018-05-31T05:36:05.319Z,25.90
2018-05-31T05:37:04.667Z,25.90
2018-05-31T05:38:05.519Z,26.00
2018-05-31T05:39:05.240Z,26.10
2018-05-31T05:40:04.987Z,26.20
2018-05-31T05:41:05.264Z,26.30
2018-05-31T05:42:05.124Z,26.40
2018-05-31T05:43:04.839Z,26.50
2018-05-31T05:44:04.941Z,26.60
2018-05-31T05:45:05.618Z,26.70
2018-05-31T05:46:04.851Z,26.70
2018-05-31T05:47:04.844Z,26.80
2018-05-31T05:48:04.739Z,26.90
2018-05-31T05:49:04.773Z,27.00
2018-05-31T05:50:05.462Z,27.10
2018-05-31T05:51:05.375Z,27.10
2018-05-31T05:52:05.091Z,27.20
2018-05-31T05:53:05.591Z,27.30
2018-05-31T05:54:05.537Z,27.30
2018-05-31T05:55:04.893Z,27.40
2018-05-31T05:56:04.915Z,27.40
2018-05-31T05:57:04.891Z,27.50
2018-05-31T05:58:05.522Z,27.60
2018-05-31T05:59:05.017Z,27.60
2018-05-31T06:00:05.309Z,27.70
2018-05-31T06:01:05.391Z,27.80
2018-05-31T06:02:05.172Z,27.90
2018-05-31T06:03:05.090Z,28.00
2018-05-31T06:04:04.921Z,28.10
2018-05-31T06:05:04.669Z,28.10
2018-05-31T06:06:05.714Z,28.20
2018-05-31T06:07:04.844Z,28.30
2018-05-31T06:08:05.648Z,28.40
2018-05-31T06:09:05.561Z,28.40
2018-05-31T06:10:04.797Z,28.50
2018-05-31T06:11:04.708Z,28.50
2018-05-31T06:12:05.383Z,28.60
2018-05-31T06:13:04.993Z,28.60
2018-05-31T06:14:05.732Z,28.60
2018-05-31T06:15:05.469Z,28.70
2018-05-31T06:16:05.515Z,28.70
2018-05-31T06:17:05.255Z,28.80
2018-05-31T06:18:05.315Z,28.90
2018-05-31T06:19:05.421Z,28.90
2018-05-31T06:20:05.523Z,28.90
2018-05-31T06:21:05.281Z,28.90
2018-05-31T06:22:05.062Z,28.90
2018-05-31T06:23:05.203Z,28.90
2018-05-31T06:24:05.555Z,28.90
2018-05-31T06:25:04.694Z,28.90
2018-05-31T06:26:05.692Z,28.90
2018-05-31T06:27:04.697Z,28.80
2018-05-31T06:28:05.330Z,28.80
2018-05-31T06:29:05.448Z,28.70
2018-05-31T06:30:05.216Z,28.70
2018-05-31T06:31:05.144Z,28.60
2018-05-31T06:32:04.918Z,28.50
2018-05-31T06:33:05.499Z,28.50
2018-05-31T06:34:05.481Z,28.40
2018-05-31T06:35:05.105Z,28.30
2018-05-31T06:36:05.239Z,28.20
2018-05-31T06:37:04.937Z,28.10
2018-05-31T06:38:05.562Z,28.00
2018-05-31T06:39:05.548Z,27.90
2018-05-31T06:40:05.060Z,27.80
2018-05-31T06:41:04.988Z,27.70
2018-05-31T06:42:04.973Z,27.60
2018-05-31T06:43:04.661Z,27.50
2018-05-31T06:44:05.293Z,27.40
2018-05-31T06:45:05.089Z,27.30
2018-05-31T06:46:04.853Z,27.20
2018-05-31T06:47:05.605Z,27.10
2018-05-31T06:48:05.468Z,27.00
2018-05-31T06:49:05.261Z,27.00
2018-05-31T06:50:04.917Z,26.90
2018-05-31T06:51:04.918Z,26.80
2018-05-31T06:52:04.825Z,26.80
2018-05-31T06:53:04.752Z,26.70
2018-05-31T06:54:05.663Z,26.70
2018-05-31T06:55:05.218Z,26.70
2018-05-31T06:56:06.417Z,26.70
2018-05-31T06:57:05.585Z,26.80
2018-05-31T06:58:05.424Z,26.80
2018-05-31T06:59:05.465Z,26.90
2018-05-31T07:00:05.730Z,26.90
2018-05-31T07:01:05.354Z,27.00
2018-05-31T07:02:05.103Z,27.10
2018-05-31T07:03:05.077Z,27.20
2018-05-31T07:04:10.510Z,27.20
2018-05-31T07:05:05.353Z,27.30
2018-05-31T07:06:05.126Z,27.40
2018-05-31T07:07:05.151Z,27.40
2018-05-31T07:08:05.148Z,27.50
2018-05-31T07:09:05.664Z,27.60
2018-05-31T07:10:04.770Z,27.60
2018-05-31T07:11:05.499Z,27.70
2018-05-31T07:12:05.643Z,27.70
2018-05-31T07:13:04.881Z,27.80
2018-05-31T07:14:05.501Z,27.90
2018-05-31T07:15:04.994Z,27.90
2018-05-31T07:16:04.880Z,28.00
2018-05-31T07:17:05.226Z,28.00
2018-05-31T07:18:04.909Z,28.10
2018-05-31T07:19:05.532Z,28.10
2018-05-31T07:20:05.621Z,28.10
2018-05-31T07:21:05.174Z,28.20
2018-05-31T07:22:05.440Z,28.10
2018-05-31T07:23:04.776Z,28.20
2018-05-31T07:24:05.084Z,28.20
2018-05-31T07:25:05.634Z,28.20
2018-05-31T07:26:05.606Z,28.20
2018-05-31T07:27:04.676Z,28.30
2018-05-31T07:28:05.494Z,28.30
2018-05-31T07:29:05.104Z,28.40
2018-05-31T07:30:05.438Z,28.40
2018-05-31T07:31:05.322Z,28.50
2018-05-31T07:32:05.392Z,28.50
2018-05-31T07:33:05.234Z,28.60
2018-05-31T07:34:05.981Z,28.60
2018-05-31T07:35:05.173Z,28.70
2018-05-31T07:36:04.924Z,28.80
2018-05-31T07:37:05.706Z,28.80
2018-05-31T07:38:05.565Z,28.90
2018-05-31T07:39:05.038Z,28.90
2018-05-31T07:40:05.113Z,29.00
2018-05-31T07:41:05.125Z,29.00
2018-05-31T07:42:05.291Z,29.00
2018-05-31T07:43:05.105Z,29.00
2018-05-31T07:44:05.444Z,29.00
2018-05-31T07:45:05.312Z,29.00
2018-05-31T07:46:04.905Z,29.00
2018-05-31T07:47:05.184Z,29.00
2018-05-31T07:48:05.000Z,29.00
2018-05-31T07:49:05.645Z,29.10
2018-05-31T07:50:04.970Z,29.10
2018-05-31T07:51:05.474Z,29.10
2018-05-31T07:52:05.481Z,29.10
2018-05-31T07:53:05.313Z,29.20
2018-05-31T07:54:05.394Z,29.20
2018-05-31T07:55:05.270Z,29.20
2018-05-31T07:56:05.253Z,29.20
2018-05-31T07:57:05.090Z,29.20
2018-05-31T07:58:05.745Z,29.20
2018-05-31T07:59:05.550Z,29.20
2018-05-31T08:00:05.411Z,29.30
2018-05-31T08:01:05.330Z,29.30
2018-05-31T08:02:06.368Z,29.30
2018-05-31T08:03:05.350Z,29.30
2018-05-31T08:04:05.035Z,29.40
2018-05-31T08:05:05.174Z,29.40
2018-05-31T08:06:04.805Z,29.40
2018-05-31T08:07:05.478Z,29.50
2018-05-31T08:08:04.647Z,29.50
2018-05-31T08:09:04.971Z,29.50
2018-05-31T08:10:05.525Z,29.50
2018-05-31T08:11:05.394Z,29.50
2018-05-31T08:12:05.718Z,29.60
2018-05-31T08:13:05.642Z,29.60
2018-05-31T08:14:04.903Z,29.60
2018-05-31T08:15:05.432Z,29.60
2018-05-31T08:16:05.671Z,29.70
2018-05-31T08:17:05.508Z,29.70
2018-05-31T08:18:05.072Z,29.70
2018-05-31T08:19:04.864Z,29.70
2018-05-31T08:20:09.864Z,29.70
2018-05-31T08:21:04.865Z,29.80
2018-05-31T08:22:05.586Z,29.80
2018-05-31T08:23:05.217Z,29.80
2018-05-31T08:24:05.209Z,29.90
2018-05-31T08:25:05.463Z,29.90
2018-05-31T08:26:05.126Z,29.90
2018-05-31T08:27:04.767Z,30.00
2018-05-31T08:28:05.285Z,30.00
2018-05-31T08:29:05.493Z,30.00
2018-05-31T08:30:05.282Z,30.00
2018-05-31T08:31:04.907Z,30.00
2018-05-31T08:32:05.467Z,30.10
2018-05-31T08:33:04.782Z,30.10
2018-05-31T08:34:04.847Z,30.10
2018-05-31T08:35:05.518Z,30.10
2018-05-31T08:36:05.758Z,30.10
2018-05-31T08:37:04.663Z,30.20
2018-05-31T08:38:04.869Z,30.20
2018-05-31T08:39:05.882Z,30.20
2018-05-31T08:40:05.021Z,30.20
2018-05-31T08:41:05.528Z,30.20
2018-05-31T08:42:05.261Z,30.20
2018-05-31T08:43:04.815Z,30.20
2018-05-31T08:44:05.497Z,30.20
2018-05-31T08:45:05.265Z,30.20
2018-05-31T08:46:05.290Z,30.20
2018-05-31T08:47:04.970Z,30.20
2018-05-31T08:48:05.277Z,30.20
2018-05-31T08:49:04.768Z,30.20
2018-05-31T08:50:05.404Z,30.20
2018-05-31T08:51:05.052Z,30.20
2018-05-31T08:52:05.159Z,30.20
2018-05-31T08:53:05.102Z,30.20
2018-05-31T08:54:05.057Z,30.10
2018-05-31T08:55:04.927Z,30.10
2018-05-31T08:56:04.847Z,30.10
2018-05-31T08:57:05.782Z,30.10
2018-05-31T08:58:05.128Z,30.10
2018-05-31T08:59:05.230Z,30.10
2018-05-31T09:00:05.602Z,30.20
2018-05-31T09:01:04.766Z,30.20
2018-05-31T09:02:04.794Z,30.20
2018-05-31T09:03:04.649Z,30.30
2018-05-31T09:04:05.502Z,30.30
2018-05-31T09:05:05.039Z,30.30
2018-05-31T09:06:04.898Z,30.40
2018-05-31T09:07:05.500Z,30.40
2018-05-31T09:08:05.194Z,30.40
2018-05-31T09:09:05.619Z,30.40
2018-05-31T09:10:05.316Z,30.50
2018-05-31T09:11:05.420Z,30.50
2018-05-31T09:12:05.079Z,30.50
2018-05-31T09:13:04.903Z,30.50
2018-05-31T09:14:05.240Z,30.50
2018-05-31T09:15:04.885Z,30.50
2018-05-31T09:16:05.795Z,30.60
2018-05-31T09:17:04.723Z,30.60
2018-05-31T09:18:04.938Z,30.60
2018-05-31T09:19:04.831Z,30.60
2018-05-31T09:20:05.500Z,30.60
2018-05-31T09:21:04.961Z,30.50
2018-05-31T09:22:05.531Z,30.50
2018-05-31T09:23:05.214Z,30.50
2018-05-31T09:24:05.247Z,30.50
2018-05-31T09:25:05.065Z,30.60
2018-05-31T09:26:05.109Z,30.60
2018-05-31T09:27:05.294Z,30.60
2018-05-31T09:28:05.468Z,30.60
2018-05-31T09:29:05.708Z,30.60
2018-05-31T09:30:04.806Z,30.70
2018-05-31T09:31:05.620Z,30.70
2018-05-31T09:32:05.047Z,30.70
2018-05-31T09:33:05.686Z,30.80
2018-05-31T09:34:05.291Z,30.80
2018-05-31T09:35:05.136Z,30.80
2018-05-31T09:36:05.527Z,30.80
2018-05-31T09:37:05.288Z,30.80
2018-05-31T09:38:05.105Z,30.80
2018-05-31T09:39:05.440Z,30.90
2018-05-31T09:40:05.173Z,30.90
2018-05-31T09:41:10.253Z,31.00
2018-05-31T09:42:06.242Z,31.00
2018-05-31T09:43:05.216Z,31.00
2018-05-31T09:44:10.525Z,31.10
2018-05-31T09:45:05.319Z,31.10
2018-05-31T09:46:05.544Z,31.10
2018-05-31T09:47:05.263Z,31.20
2018-05-31T09:48:05.417Z,31.20
2018-05-31T09:49:05.595Z,31.20
2018-05-31T09:50:04.838Z,31.20
2018-05-31T09:51:04.796Z,31.20
2018-05-31T09:52:05.480Z,31.30
2018-05-31T09:53:05.284Z,31.30
2018-05-31T09:54:06.556Z,31.30
2018-05-31T09:55:04.639Z,31.30
2018-05-31T09:56:05.539Z,31.30
2018-05-31T09:57:04.687Z,31.40
2018-05-31T09:58:05.686Z,31.40
2018-05-31T09:59:05.322Z,31.40
2018-05-31T10:00:05.421Z,31.40
2018-05-31T10:01:05.569Z,31.50
2018-05-31T10:02:05.324Z,31.50
2018-05-31T10:03:04.884Z,31.50
2018-05-31T10:04:04.877Z,31.50
2018-05-31T10:05:04.765Z,31.50
2018-05-31T10:06:05.477Z,31.60
2018-05-31T10:07:04.864Z,31.60
2018-05-31T10:08:05.469Z,31.60
2018-05-31T10:09:04.876Z,31.60
2018-05-31T10:10:04.881Z,31.60
2018-05-31T10:11:05.196Z,31.60
2018-05-31T10:12:05.141Z,31.60
2018-05-31T10:13:10.328Z,31.60
2018-05-31T10:14:06.200Z,31.60
2018-05-31T10:15:04.715Z,31.60
2018-05-31T10:16:04.859Z,31.60
2018-05-31T10:17:05.055Z,31.60
2018-05-31T10:18:04.653Z,31.60
2018-05-31T10:19:04.939Z,31.60
2018-05-31T10:20:04.908Z,31.50
2018-05-31T10:21:05.580Z,31.50
2018-05-31T10:22:05.350Z,31.50
2018-05-31T10:23:05.396Z,31.50
2018-05-31T10:24:05.157Z,31.50
2018-05-31T10:25:05.498Z,31.50
2018-05-31T10:26:05.160Z,31.50
2018-05-31T10:27:05.099Z,31.50
2018-05-31T10:28:05.124Z,31.50
2018-05-31T10:29:05.277Z,31.50
2018-05-31T10:30:05.080Z,31.50
2018-05-31T10:31:05.314Z,31.50
2018-05-31T10:32:05.414Z,31.50
2018-05-31T10:33:05.602Z,31.50
2018-05-31T10:34:05.171Z,31.60
2018-05-31T10:35:05.118Z,31.60
2018-05-31T10:36:04.776Z,31.60
2018-05-31T10:37:05.062Z,31.50
2018-05-31T10:38:05.099Z,31.40
2018-05-31T10:39:04.977Z,31.40
2018-05-31T10:40:05.531Z,31.30
2018-05-31T10:41:05.316Z,31.30
2018-05-31T10:42:05.115Z,31.30
2018-05-31T10:43:05.134Z,31.30
2018-05-31T10:44:05.364Z,31.20
2018-05-31T10:45:05.516Z,31.20
2018-05-31T10:46:05.222Z,31.20
2018-05-31T10:47:05.406Z,31.20
2018-05-31T10:48:04.954Z,31.10
2018-05-31T10:49:05.286Z,31.10
2018-05-31T10:50:05.072Z,31.10
2018-05-31T10:51:05.141Z,31.10
2018-05-31T10:52:05.527Z,31.00
2018-05-31T10:53:05.210Z,31.00
2018-05-31T10:54:05.437Z,31.00
2018-05-31T10:55:05.423Z,31.00
2018-05-31T10:56:05.361Z,31.00
2018-05-31T10:57:05.457Z,31.00
2018-05-31T10:58:05.324Z,31.00
2018-05-31T10:59:05.749Z,31.00
2018-05-31T11:00:05.701Z,31.00
2018-05-31T11:01:05.535Z,31.10
2018-05-31T11:02:05.303Z,31.10
2018-05-31T11:03:05.218Z,31.10
2018-05-31T11:04:05.465Z,31.10
2018-05-31T11:05:04.735Z,31.10
2018-05-31T11:06:04.913Z,31.10
2018-05-31T11:07:05.284Z,31.20
2018-05-31T11:08:05.392Z,31.20
2018-05-31T11:09:04.906Z,31.10
2018-05-31T11:10:05.021Z,31.10
2018-05-31T11:11:05.134Z,31.10
2018-05-31T11:12:04.958Z,31.00
2018-05-31T11:13:05.664Z,31.00
2018-05-31T11:14:05.695Z,31.00
2018-05-31T11:15:04.811Z,30.90
2018-05-31T11:16:05.616Z,30.90
2018-05-31T11:17:04.780Z,31.00
2018-05-31T11:18:05.027Z,31.00
2018-05-31T11:19:05.606Z,31.00
2018-05-31T11:20:04.823Z,31.10
2018-05-31T11:21:04.758Z,31.00
2018-05-31T11:22:04.791Z,31.10
2018-05-31T11:23:05.803Z,31.10
2018-05-31T11:24:04.694Z,31.10
2018-05-31T11:25:05.540Z,31.10
2018-05-31T11:26:05.517Z,31.10
2018-05-31T11:27:05.435Z,31.00
2018-05-31T11:28:05.380Z,30.90
2018-05-31T11:29:05.747Z,30.90
2018-05-31T11:30:05.970Z,30.80
2018-05-31T11:31:05.539Z,30.80
2018-05-31T11:32:05.349Z,30.80
2018-05-31T11:33:05.356Z,30.80
2018-05-31T11:34:05.335Z,30.80
2018-05-31T11:35:04.852Z,30.80
2018-05-31T11:36:05.260Z,30.90
2018-05-31T11:37:05.456Z,30.90
2018-05-31T11:38:05.443Z,30.90
2018-05-31T11:39:05.601Z,30.90
2018-05-31T11:40:04.970Z,30.90
2018-05-31T11:41:05.791Z,31.00
2018-05-31T11:42:05.295Z,30.90
2018-05-31T11:43:05.584Z,30.90
2018-05-31T11:44:06.798Z,30.90
2018-05-31T11:45:05.288Z,30.90
2018-05-31T11:46:05.258Z,30.90
2018-05-31T11:47:04.848Z,30.90
2018-05-31T11:48:05.074Z,30.90
2018-05-31T11:49:05.167Z,30.80
2018-05-31T11:50:05.469Z,30.80
2018-05-31T11:51:05.068Z,30.80
2018-05-31T11:52:04.922Z,30.70
2018-05-31T11:53:05.162Z,30.70
2018-05-31T11:54:05.437Z,30.70
2018-05-31T11:55:06.939Z,30.70
2018-05-31T11:56:05.045Z,30.70
2018-05-31T11:57:05.602Z,30.70
2018-05-31T11:58:05.381Z,30.60
2018-05-31T11:59:05.461Z,30.60
2018-05-31T12:00:05.321Z,30.50
2018-05-31T12:01:04.799Z,30.50
2018-05-31T12:02:04.653Z,30.40
2018-05-31T12:03:05.557Z,30.40
2018-05-31T12:04:05.475Z,30.30
2018-05-31T12:05:05.330Z,30.30
2018-05-31T12:06:05.242Z,30.20
2018-05-31T12:07:05.247Z,30.20
2018-05-31T12:08:05.033Z,30.10
2018-05-31T12:09:04.843Z,30.00
2018-05-31T12:10:05.745Z,30.00
2018-05-31T12:11:04.724Z,29.90
2018-05-31T12:12:04.955Z,29.80
2018-05-31T12:13:04.733Z,29.80
2018-05-31T12:14:05.408Z,29.80
2018-05-31T12:15:04.632Z,29.70
2018-05-31T12:16:05.500Z,29.70
2018-05-31T12:17:05.248Z,29.70
2018-05-31T12:18:04.967Z,29.70
2018-05-31T12:19:04.665Z,29.80
2018-05-31T12:20:05.553Z,29.80
2018-05-31T12:21:05.473Z,29.80
2018-05-31T12:22:04.985Z,29.90
2018-05-31T12:23:05.748Z,29.90
2018-05-31T12:24:05.468Z,30.00
2018-05-31T12:25:05.593Z,30.00
2018-05-31T12:26:05.272Z,30.00
2018-05-31T12:27:05.192Z,30.00
2018-05-31T12:28:04.892Z,30.10
2018-05-31T12:29:05.962Z,30.10
2018-05-31T12:30:05.209Z,30.10
2018-05-31T12:31:04.834Z,30.10
2018-05-31T12:32:05.711Z,30.20
2018-05-31T12:33:05.260Z,30.20
2018-05-31T12:34:05.202Z,30.20
2018-05-31T12:35:06.228Z,30.30
2018-05-31T12:36:05.336Z,30.30
2018-05-31T12:37:04.952Z,30.20
2018-05-31T12:38:04.773Z,30.20
2018-05-31T12:39:04.873Z,30.20
2018-05-31T12:40:04.726Z,30.10
2018-05-31T12:41:05.456Z,30.10
2018-05-31T12:42:05.328Z,30.00
2018-05-31T12:43:05.006Z,30.00
2018-05-31T12:44:05.030Z,29.90
2018-05-31T12:45:04.800Z,29.90
2018-05-31T12:46:05.116Z,29.80
2018-05-31T12:47:04.972Z,29.80
2018-05-31T12:48:05.105Z,29.70
2018-05-31T12:49:05.292Z,29.70
2018-05-31T12:50:05.247Z,29.60
2018-05-31T12:51:04.879Z,29.60
2018-05-31T12:52:04.612Z,29.60